Time;durP1;ratioP1;P1;durP2;ratioP2;P2;SDS_P1;SDS_P2;PMS_P1;PMS_P2;Temp;Humidity;BMP_temperature;BMP_pressure;BME280_temperature;BME280_humidity;BME280_pressure;Samples;Min_cycle;Max_cycle;Signal;HPM_P1;HPM_P2
2022/06/07 00:08:15;;;;;;;4.32;1.83;;;;;;;17.11;100.00;100388.06;20993448;28;20107;-67
2022/06/07 00:18:17;;;;;;;3.55;1.77;;;;;;;17.02;100.00;100389.31;20992919;28;20143;-66
2022/06/07 00:28:20;;;;;;;2.40;1.45;;;;;;;16.81;100.00;100384.91;20991951;28;20102;-67
2022/06/07 00:38:21;;;;;;;3.78;1.60;;;;;;;16.74;100.00;100378.16;20989957;28;20045;-67
2022/06/07 00:48:24;;;;;;;5.10;2.35;;;;;;;16.70;100.00;100387.09;20990468;28;20041;-69
2022/06/07 00:58:28;;;;;;;5.18;2.22;;;;;;;16.47;100.00;100372.19;20989258;28;20055;-70
2022/06/07 01:18:49;;;;;;;6.72;3.20;;;;;;;16.27;100.00;100367.69;20987931;28;20051;-69
2022/06/07 01:28:51;;;;;;;7.20;3.22;;;;;;;16.28;100.00;100369.41;20986874;28;20048;-70
2022/06/07 01:49:12;;;;;;;5.18;2.75;;;;;;;16.19;100.00;100365.34;20985589;28;20053;-69
2022/06/07 01:59:14;;;;;;;5.68;3.10;;;;;;;16.09;100.00;100359.56;20984862;28;20483;-69
2022/06/07 02:09:17;;;;;;;4.65;2.92;;;;;;;16.05;100.00;100350.06;20983246;28;20497;-70
2022/06/07 02:19:18;;;;;;;4.72;2.60;;;;;;;16.01;100.00;100339.69;20983392;28;20048;-69
2022/06/07 02:29:25;;;;;;;4.20;2.58;;;;;;;15.99;100.00;100310.66;20983709;28;20045;-68
2022/06/07 02:39:29;;;;;;;3.75;2.15;;;;;;;15.90;100.00;100327.75;20982920;28;20078;-69
2022/06/07 02:49:31;;;;;;;4.60;2.77;;;;;;;15.60;100.00;100313.91;20982762;28;20056;-69
2022/06/07 02:59:32;;;;;;;5.05;2.72;;;;;;;15.43;100.00;100316.31;20982434;28;20044;-68
2022/06/07 03:09:34;;;;;;;6.85;3.42;;;;;;;15.41;100.00;100318.13;20984520;28;20068;-69
2022/06/07 03:19:36;;;;;;;8.48;4.05;;;;;;;15.37;100.00;100322.66;20997120;28;20057;-71
2022/06/07 03:29:37;;;;;;;6.30;3.47;;;;;;;15.28;100.00;100323.03;20996492;28;20048;-68
2022/06/07 03:39:39;;;;;;;7.18;4.15;;;;;;;15.23;100.00;100329.34;20994286;28;20173;-68
2022/06/07 03:49:40;;;;;;;8.55;4.35;;;;;;;15.17;100.00;100316.41;20995531;28;20052;-69
2022/06/07 03:59:42;;;;;;;10.15;4.72;;;;;;;15.19;100.00;100318.09;20993868;28;20048;-68
2022/06/07 04:09:43;;;;;;;8.27;4.47;;;;;;;15.07;100.00;100335.19;20993559;28;20048;-65
2022/06/07 04:19:45;;;;;;;8.07;4.47;;;;;;;15.35;100.00;100342.97;20992140;28;20040;-66
2022/06/07 04:29:46;;;;;;;8.18;4.30;;;;;;;16.01;100.00;100344.97;20993770;28;20524;-66
2022/06/07 04:39:48;;;;;;;8.73;4.72;;;;;;;17.78;100.00;100345.38;20991086;28;20424;-66
2022/06/07 04:49:49;;;;;;;5.80;3.97;;;;;;;17.31;100.00;100355.44;20991761;28;20090;-66
2022/06/07 04:59:51;;;;;;;8.52;4.22;;;;;;;16.80;100.00;100369.97;20990382;28;20507;-67
2022/06/07 05:09:52;;;;;;;8.20;3.50;;;;;;;16.67;100.00;100377.50;20989311;28;20456;-67
2022/06/07 05:19:54;;;;;;;8.05;4.15;;;;;;;16.93;100.00;100389.69;20988927;28;20045;-67
2022/06/07 05:29:56;;;;;;;8.82;4.28;;;;;;;17.10;100.00;100387.19;20987762;28;20052;-66
2022/06/07 05:39:58;;;;;;;6.25;4.20;;;;;;;17.05;100.00;100377.72;20984393;28;20094;-67
2022/06/07 05:50:01;;;;;;;7.63;4.18;;;;;;;17.37;100.00;100389.56;20986118;28;20052;-67
2022/06/07 06:00:04;;;;;;;6.20;3.40;;;;;;;17.41;100.00;100401.75;20985391;28;20090;-67
2022/06/07 06:10:21;;;;;;;7.50;3.60;;;;;;;17.88;100.00;100396.13;20985032;28;20044;-67
2022/06/07 06:20:23;;;;;;;8.48;4.30;;;;;;;17.73;100.00;100404.75;20985065;28;20465;-66
2022/06/07 06:30:25;;;;;;;6.93;3.85;;;;;;;17.82;100.00;100380.50;20983774;28;20049;-66
2022/06/07 06:40:26;;;;;;;6.38;3.00;;;;;;;17.64;100.00;100383.03;20983466;28;20481;-67
2022/06/07 06:50:28;;;;;;;4.47;2.38;;;;;;;18.12;100.00;100388.84;20998212;28;20669;-66
2022/06/07 07:00:30;;;;;;;5.10;1.90;;;;;;;18.86;100.00;100373.72;20999704;28;20033;-67
2022/06/07 07:10:31;;;;;;;5.85;1.83;;;;;;;19.41;94.56;100376.22;20943863;28;20412;-66
2022/06/07 07:20:33;;;;;;;4.25;1.90;;;;;;;19.37;92.40;100376.44;20972917;28;20187;-65
2022/06/07 07:30:34;;;;;;;3.95;1.70;;;;;;;19.76;92.38;100362.00;20905724;28;20041;-65
2022/06/07 07:40:39;;;;;;;3.47;1.77;;;;;;;20.14;89.43;100374.03;20946768;28;20068;-65
2022/06/07 07:50:41;;;;;;;4.18;1.95;;;;;;;20.32;89.04;100360.66;20987929;28;20052;-66
2022/06/07 08:00:45;;;;;;;3.45;1.70;;;;;;;20.98;86.32;100369.25;20986027;28;20516;-66
2022/06/07 08:10:46;;;;;;;6.47;1.30;;;;;;;20.33;80.93;100362.38;20978025;28;20052;-66
2022/06/07 08:20:48;;;;;;;4.82;1.13;;;;;;;19.80;83.80;100363.56;20902686;28;20045;-66
2022/06/07 08:30:49;;;;;;;4.35;1.50;;;;;;;19.99;88.38;100350.97;20901203;28;20484;-65
2022/06/07 08:40:51;;;;;;;2.70;1.00;;;;;;;20.90;77.83;100338.69;20899265;28;20045;-65
2022/06/07 08:51:26;;;;;;;2.17;0.93;;;;;;;20.70;79.87;100329.22;20900451;28;20048;-65
2022/06/07 09:01:43;;;;;;;3.30;1.20;;;;;;;20.91;76.66;100329.75;20895885;28;20041;-65
2022/06/07 09:12:09;;;;;;;4.88;1.10;;;;;;;21.27;72.50;100324.00;20913667;28;20041;-68
2022/06/07 09:22:40;;;;;;;2.70;0.90;;;;;;;22.29;54.41;100303.38;20980598;28;20063;-70
2022/06/07 09:32:43;;;;;;;2.42;1.00;;;;;;;23.08;57.28;100291.78;20961008;28;20047;-66
2022/06/07 09:42:51;;;;;;;6.13;0.90;;;;;;;21.88;59.52;100292.69;20978856;28;20493;-66
2022/06/07 09:52:59;;;;;;;3.17;1.05;;;;;;;23.27;58.42;100284.19;20978997;28;20047;-66
2022/06/07 10:03:30;;;;;;;3.90;1.20;;;;;;;22.86;60.04;100272.88;20977307;28;20056;-65
2022/06/07 10:14:00;;;;;;;2.47;0.90;;;;;;;23.23;59.54;100258.66;20945969;28;20072;-65
2022/06/07 10:24:20;;;;;;;2.22;0.90;;;;;;;22.91;60.59;100262.75;20893250;28;20163;-66
2022/06/07 10:34:45;;;;;;;3.00;0.95;;;;;;;22.48;61.26;100260.31;20892246;28;20456;-66
2022/06/07 10:44:49;;;;;;;;;;;;;;;23.26;61.56;100253.09;20884814;28;20498;-66
2022/06/07 10:55:09;;;;;;;3.00;1.00;;;;;;;22.94;58.97;100235.81;20892801;28;20328;-66
2022/06/07 11:15:49;;;;;;;3.28;1.02;;;;;;;23.23;59.71;100229.28;20941190;28;20057;-65
2022/06/07 11:26:08;;;;;;;1.95;1.02;;;;;;;23.54;58.03;100219.91;20974404;28;20079;-66
2022/06/07 11:36:12;;;;;;;2.75;1.00;;;;;;;23.40;58.49;100222.75;20984518;28;20060;-66
2022/06/07 11:46:32;;;;;;;2.53;0.90;;;;;;;23.78;59.14;100201.25;20988486;28;20045;-66
2022/06/07 11:56:47;;;;;;;2.72;0.93;;;;;;;22.64;59.26;100212.06;20987762;28;20132;-65
2022/06/07 12:06:50;;;;;;;2.55;1.00;;;;;;;22.59;64.12;100199.06;20986017;28;20045;-65
2022/06/07 12:16:59;;;;;;;1.88;0.80;;;;;;;23.22;59.57;100179.50;20925560;28;20051;-65
2022/06/07 12:27:12;;;;;;;2.28;0.70;;;;;;;23.14;55.33;100175.66;20900223;28;20095;-65
2022/06/07 12:37:25;;;;;;;0.90;0.50;;;;;;;23.42;53.21;100145.97;20899928;28;20060;-65
2022/06/07 12:47:34;;;;;;;1.33;0.65;;;;;;;23.87;50.64;100140.06;20900835;28;20055;-65
2022/06/07 12:57:49;;;;;;;1.88;0.60;;;;;;;23.52;55.42;100124.78;20899482;28;20519;-65
2022/06/07 13:07:55;;;;;;;2.90;0.50;;;;;;;23.68;51.56;100132.56;20898815;28;20052;-65
2022/06/07 13:18:02;;;;;;;2.85;0.70;;;;;;;23.39;54.62;100124.84;20966194;28;20098;-65
2022/06/07 13:28:17;;;;;;;3.08;0.90;;;;;;;22.97;57.56;100118.13;20980470;28;20052;-68
2022/06/07 13:38:31;;;;;;;2.13;0.70;;;;;;;23.47;55.50;100094.88;20978201;28;20045;-68
2022/06/07 13:58:56;;;;;;;2.75;0.93;;;;;;;23.51;55.91;100091.00;20977403;28;20048;-64
2022/06/07 14:09:01;;;;;;;1.27;0.90;;;;;;;23.69;56.92;100089.66;20975943;28;20048;-67
2022/06/07 14:19:06;;;;;;;1.25;0.73;;;;;;;23.71;57.71;100074.34;20977087;28;20048;-64
2022/06/07 14:29:08;;;;;;;3.00;1.10;;;;;;;24.05;56.93;100080.69;20976410;28;20041;-65
2022/06/07 14:39:19;;;;;;;0.85;0.57;;;;;;;24.04;53.67;100075.44;20975146;28;20419;-65
2022/06/07 14:49:28;;;;;;;1.38;0.57;;;;;;;23.59;57.34;100080.59;20975093;28;20044;-67
2022/06/07 14:59:30;;;;;;;3.67;1.48;;;;;;;23.82;57.55;100080.72;20974653;28;20093;-67
2022/06/07 15:09:31;;;;;;;1.88;0.75;;;;;;;21.40;74.12;100164.31;20984714;28;20106;-68
2022/06/07 15:19:33;;;;;;;8.18;2.05;;;;;;;17.61;100.00;100202.28;20989756;28;20044;-69
2022/06/07 15:29:50;;;;;;;5.93;1.33;;;;;;;16.72;100.00;100189.63;20988863;28;20048;-68
2022/06/07 15:39:52;;;;;;;7.65;1.58;;;;;;;17.47;100.00;100216.16;20985823;28;20045;-69
2022/06/07 15:49:53;;;;;;;4.95;1.60;;;;;;;17.88;100.00;100210.72;20987095;28;20048;-69
2022/06/07 15:59:55;;;;;;;5.32;1.63;;;;;;;18.39;100.00;100185.16;20986691;28;20051;-66
2022/06/07 16:09:56;;;;;;;3.88;1.48;;;;;;;18.88;100.00;100166.75;20983027;28;20077;-65
2022/06/07 16:19:58;;;;;;;2.10;0.82;;;;;;;20.36;100.00;100155.66;20901509;28;20044;-64
2022/06/07 16:40:20;;;;;;;5.78;1.17;;;;;;;21.33;100.00;100147.03;20900926;28;20521;-65
2022/06/07 16:50:21;;;;;;;6.38;1.17;;;;;;;21.70;100.00;100135.69;20898908;28;20486;-65
2022/06/07 17:00:25;;;;;;;4.15;1.25;;;;;;;21.46;100.00;100139.94;20898685;28;20079;-65
2022/06/07 17:10:26;;;;;;;3.15;1.33;;;;;;;21.09;100.00;100136.97;20905390;28;20058;-65
2022/06/07 17:20:29;;;;;;;2.65;1.08;;;;;;;20.43;100.00;100149.00;20981031;28;20041;-66
2022/06/07 17:30:31;;;;;;;4.30;1.58;;;;;;;20.30;100.00;100166.63;20977971;28;20086;-67
2022/06/07 17:40:36;;;;;;;2.95;1.08;;;;;;;20.10;100.00;100165.16;20978839;28;20416;-68
2022/06/07 17:50:39;;;;;;;2.22;1.10;;;;;;;20.01;100.00;100171.00;20979141;28;20322;-67
2022/06/07 18:00:41;;;;;;;2.40;1.17;;;;;;;20.57;100.00;100172.13;20979471;28;20113;-68
2022/06/07 18:10:45;;;;;;;3.50;1.00;;;;;;;20.43;99.93;100172.94;20970636;28;20041;-65
2022/06/07 18:20:49;;;;;;;2.30;1.15;;;;;;;20.29;99.72;100166.72;20893904;28;20422;-65
2022/06/07 18:30:52;;;;;;;4.10;1.23;;;;;;;19.94;100.00;100173.19;20892480;28;20048;-68
2022/06/07 18:40:54;;;;;;;4.13;1.27;;;;;;;19.84;100.00;100158.72;20903585;28;20479;-68
2022/06/07 18:50:56;;;;;;;5.80;1.52;;;;;;;19.68;100.00;100164.03;20919646;28;20131;-68
2022/06/07 19:00:59;;;;;;;3.05;1.38;;;;;;;19.36;100.00;100172.97;20918750;28;20414;-69
2022/06/07 19:11:01;;;;;;;2.80;1.40;;;;;;;19.08;100.00;100185.09;20929430;28;20044;-69
2022/06/07 19:21:03;;;;;;;3.83;1.50;;;;;;;18.80;100.00;100184.84;21001457;28;20052;-68
2022/06/07 19:31:05;;;;;;;5.20;1.63;;;;;;;18.51;100.00;100191.66;21000247;28;20053;-68
2022/06/07 19:41:07;;;;;;;2.83;1.27;;;;;;;18.25;100.00;100192.97;20999843;28;20534;-68
2022/06/07 19:51:12;;;;;;;3.78;1.40;;;;;;;18.09;100.00;100199.06;20997357;28;20050;-69
2022/06/07 20:01:14;;;;;;;4.15;1.40;;;;;;;18.02;100.00;100200.31;20987189;28;20463;-69
2022/06/07 20:11:17;;;;;;;3.23;1.70;;;;;;;17.79;100.00;100198.78;20973674;28;20048;-69
2022/06/07 20:21:26;;;;;;;3.97;1.70;;;;;;;17.60;100.00;100196.13;20903101;28;20053;-69
2022/06/07 20:31:27;;;;;;;3.15;1.85;;;;;;;17.44;100.00;100198.66;20901194;28;20041;-70
2022/06/07 20:41:29;;;;;;;3.88;1.75;;;;;;;17.24;100.00;100193.41;20900222;28;20543;-68
2022/06/07 20:51:31;;;;;;;3.63;1.98;;;;;;;17.02;100.00;100198.84;20900298;28;20106;-69
2022/06/07 21:01:33;;;;;;;3.72;1.75;;;;;;;17.02;100.00;100200.66;20898990;28;20045;-70
2022/06/07 21:11:35;;;;;;;4.70;2.13;;;;;;;16.69;100.00;100201.19;20914794;28;20053;-70
2022/06/07 21:21:36;;;;;;;4.53;1.80;;;;;;;16.44;100.00;100198.75;20980690;28;20071;-71
2022/06/07 21:31:38;;;;;;;3.88;2.10;;;;;;;16.12;100.00;100200.13;20979552;28;20045;-68
2022/06/07 21:41:41;;;;;;;3.88;2.10;;;;;;;15.92;100.00;100197.44;20977602;28;20052;-66
2022/06/07 21:51:42;;;;;;;3.90;2.20;;;;;;;15.93;100.00;100189.44;20978386;28;20056;-66
2022/06/07 22:01:44;;;;;;;5.25;2.10;;;;;;;15.68;100.00;100184.31;20976902;28;20056;-66
2022/06/07 22:11:46;;;;;;;4.60;2.15;;;;;;;15.64;100.00;100178.28;20985197;28;20048;-66
2022/06/07 22:21:47;;;;;;;4.90;2.20;;;;;;;15.47;100.00;100170.16;20982577;28;20411;-66
2022/06/07 22:31:49;;;;;;;6.40;2.40;;;;;;;15.43;100.00;100157.13;20982955;28;20448;-66
2022/06/07 22:41:50;;;;;;;5.18;2.58;;;;;;;15.26;100.00;100152.53;20982390;28;20045;-66
2022/06/07 22:51:58;;;;;;;5.97;2.83;;;;;;;15.24;100.00;100142.06;20981327;28;20073;-66
2022/06/07 23:02:00;;;;;;;5.80;2.75;;;;;;;15.17;100.00;100131.78;20982214;28;20059;-66
2022/06/07 23:12:02;;;;;;;5.32;2.72;;;;;;;15.02;100.00;100139.38;20981800;28;20048;-67
2022/06/07 23:22:04;;;;;;;6.03;2.88;;;;;;;14.98;100.00;100129.84;20981492;28;20048;-66
2022/06/07 23:32:11;;;;;;;7.93;3.70;;;;;;;14.97;100.00;100122.00;20992007;28;20451;-66
2022/06/07 23:42:18;;;;;;;4.90;3.00;;;;;;;14.91;100.00;100106.44;20995752;28;20056;-67
2022/06/07 23:52:26;;;;;;;6.35;3.70;;;;;;;14.96;100.00;100110.63;20995280;28;20136;-67
